Flight Track Log - Related Links

Times and Time Zones

All times are in EDT time to prevent confusion due to time zone crossing. See the SWA502 flight status page for this flight to view local times or setup timezone preferences in your user account.

Time Position Orientation Groundspeed Altitude Reporting Facility
EDT Latitude Longitude Course Direction KTS MPH feet Rate Location/Type
Fri 01:11:59 AM 36.0756 -115.1658 267° West 182 209 3,200  Level Los Angeles Center
Fri 01:13:12 AM 36.0728 -115.2436 267° West 217 250 5,500 2,222 Climbing Los Angeles Center
Fri 01:14:14 AM 36.0014 -115.2867 206° Southwest 278 320 8,200 3,220 Climbing Los Angeles Center
Fri 01:15:15 AM 35.9272 -115.2664 168° South 298 343 12,100 3,854 Climbing Los Angeles Center
Fri 01:16:17 AM 35.9122 -115.1542 99° East 328 377 16,100 4,000 Climbing Los Angeles Center
Fri 01:17:18 AM 35.8981 -115.0147 97° East 340 391 20,300 3,393 Climbing Los Angeles Center
Fri 01:18:19 AM 35.8603 -114.8858 110° East 394 453 23,000 2,732 Climbing Los Angeles Center
Fri 01:19:21 AM 35.8128 -114.7572 114° Southeast 410 472 25,900 2,829 Climbing Los Angeles Center
Fri 01:20:22 AM 35.7631 -114.6233 115° Southeast 425 489 28,800 1,525 Climbing Los Angeles Center
Fri 01:21:23 AM 35.7131 -114.4881 114° Southeast 432 497 29,000 98 Climbing Los Angeles Center
Fri 01:22:25 AM 35.6622 -114.3536 115° Southeast 432 497 29,000  Level Los Angeles Center
Fri 01:23:26 AM 35.6075 -114.2108 115° Southeast 436 502 29,000  Level Los Angeles Center
Fri 01:24:27 AM 35.5583 -114.0764 114° Southeast 435 501 29,000  Level Los Angeles Center
Fri 01:25:28 AM 35.5069 -113.9417 115° Southeast 437 503 29,000  Level Los Angeles Center
Fri 01:26:30 AM 35.4414 -113.8164 123° Southeast 437 503 29,000  Level Los Angeles Center
Fri 01:27:31 AM 35.3722 -113.6942 125° Southeast 439 505 29,000  Level Los Angeles Center
Fri 01:28:32 AM 35.3061 -113.5714 123° Southeast 437 503 29,000  Level Los Angeles Center
Fri 01:29:33 AM 35.2267 -113.4261 124° Southeast 434 499 29,000  Level Los Angeles Center
Fri 01:30:35 AM 35.1594 -113.3044 124° Southeast 436 502 29,000  Level Los Angeles Center
Fri 01:31:36 AM 35.0925 -113.1833 124° Southeast 437 503 29,000  Level Los Angeles Center
Fri 01:32:31 AM 35.0272 -113.0625 123° Southeast 436 502 29,000  Level Albuquerque Center
Fri 01:33:31 AM 34.9589 -112.9414 125° Southeast 439 505 29,000  Level Albuquerque Center
Fri 01:34:32 AM 34.8922 -112.8200 124° Southeast 438 504 29,000  Level Albuquerque Center
Fri 01:35:32 AM 34.8225 -112.6950 124° Southeast 447 514 29,000 -446 Level Albuquerque Center
Fri 01:36:33 AM 34.7528 -112.5714 124° Southeast 448 516 28,100 -1,475 Descending Albuquerque Center
Fri 01:37:34 AM 34.6811 -112.4544 127° Southeast 439 505 26,000 -1,983 Descending Albuquerque Center
Fri 01:38:34 AM 34.5919 -112.3731 143° Southeast 408 470 24,100 -2,231 Descending Albuquerque Center
Fri 01:39:35 AM 34.5072 -112.2906 141° Southeast 401 461 21,500 -2,033 Descending Albuquerque Center
Fri 01:40:35 AM 34.4181 -112.2231 148° Southeast 388 447 20,000 -893 Descending Albuquerque Center
Fri 01:41:36 AM 34.3169 -112.1969 168° South 379 436 19,700 -1,574 Descending Albuquerque Center
Fri 01:42:37 AM 34.2008 -112.1661 168° South 362 417 16,800 -2,331 Descending Albuquerque Center
Fri 01:43:37 AM 34.1056 -112.1453 170° South 353 406 15,000 -1,686 Descending Albuquerque Center
Fri 01:44:38 AM 34.0156 -112.1419 178° South 332 382 13,400 -1,686 Descending Albuquerque Center
Fri 01:45:38 AM 33.9289 -112.1519 185° South 323 372 11,600 -1,686 Descending Albuquerque Center
Fri 01:46:39 AM 33.8447 -112.1683 189° South 315 362 10,000 -1,537 Descending Albuquerque Center
Fri 01:47:39 AM 33.7653 -112.1858 190° South 300 345 8,500 -1,091 Descending Albuquerque Center
Fri 01:48:40 AM 33.6903 -112.2014 190° South 282 325 7,800 -744 Descending Albuquerque Center
Fri 01:49:40 AM 33.6239 -112.2122 188° South 253 291 7,000 -397 Descending Albuquerque Center
Fri 01:50:41 AM 33.5586 -112.2292 192° South 242 278 7,000 -446 Level Albuquerque Center
Fri 01:51:41 AM 33.4933 -112.2472 193° South 241 277 6,100 -843 Descending Albuquerque Center
Fri 01:52:42 AM 33.4342 -112.2614 191° South 245 282 5,300 -1,041 Descending Albuquerque Center
Fri 01:53:42 AM 33.4325 -112.1933 92° East 218 251 4,000 -1,240 Descending Albuquerque Center
Fri 01:54:43 AM 33.4319 -112.1297 91° East 203 234 2,800 -1,017 Descending Albuquerque Center
Fri 01:55:40 AM 33.4333 -112.0833 88° East 137 158 2,000 -769 Descending Phoenix TRACON
Fri 01:56:40 AM 33.4333 -112.0333 90° East 121 139 1,300 -700 Descending Phoenix TRACON

Login

Don't have an account? Register now (free) for customized features, flight alerts, and more!